Time;durP1;ratioP1;P1;durP2;ratioP2;P2;SDS_P1;SDS_P2;PMS_P1;PMS_P2;Temp;Humidity;BMP_temperature;BMP_pressure;BME280_temperature;BME280_humidity;BME280_pressure;Samples;Min_cycle;Max_cycle;Signal;HPM_P1;HPM_P2
2021/12/13 00:02:12;;;;;;;10.95;2.08;;;9.20;96.20;;;;;;5047190;28;20360;-79
2021/12/13 00:05:07;;;;;;;7.20;1.52;;;9.10;96.20;;;;;;5047263;28;20017;-78
2021/12/13 00:07:40;;;;;;;5.97;1.50;;;9.10;96.30;;;;;;5038769;28;20388;-79
2021/12/13 00:10:17;;;;;;;5.45;2.15;;;9.00;96.30;;;;;;5047463;28;20021;-78
2021/12/13 00:12:51;;;;;;;9.45;2.60;;;9.00;96.40;;;;;;5047453;28;20383;-80
2021/12/13 00:15:30;;;;;;;5.40;2.17;;;9.00;96.50;;;;;;5047111;28;20025;-77
2021/12/13 00:17:57;;;;;;;9.40;1.90;;;8.90;96.60;;;;;;5045980;28;20025;-78
2021/12/13 00:20:38;;;;;;;8.38;2.55;;;8.90;96.70;;;;;;5045801;28;20124;-77
2021/12/13 00:23:36;;;;;;;9.88;2.20;;;8.80;96.70;;;;;;5047076;28;20489;-78
2021/12/13 00:26:04;;;;;;;9.18;1.90;;;8.80;96.80;;;;;;5047166;28;20047;-78
2021/12/13 00:28:39;;;;;;;8.93;2.03;;;8.80;96.90;;;;;;5047186;28;20553;-78
2021/12/13 00:31:31;;;;;;;6.10;1.88;;;8.70;96.90;;;;;;5047182;28;20054;-76
2021/12/13 00:34:28;;;;;;;11.02;2.10;;;8.70;96.90;;;;;;5047108;28;20120;-77
2021/12/13 00:37:20;;;;;;;6.68;1.67;;;8.70;97.00;;;;;;5045879;28;20077;-78
2021/12/13 00:39:58;;;;;;;9.02;2.22;;;8.60;97.00;;;;;;5047085;28;20146;-77
2021/12/13 00:42:29;;;;;;;10.38;2.10;;;8.60;97.00;;;;;;5047057;28;20025;-76
2021/12/13 00:44:59;;;;;;;7.32;1.63;;;8.50;97.00;;;;;;5045655;28;20017;-78
2021/12/13 00:47:28;;;;;;;7.60;1.67;;;8.50;97.30;;;;;;5045771;28;20059;-77
2021/12/13 00:50:15;;;;;;;4.95;1.67;;;8.50;97.10;;;;;;5045665;28;20110;-79
2021/12/13 00:52:43;;;;;;;7.60;2.13;;;8.50;97.10;;;;;;5049655;28;20025;-77
2021/12/13 00:55:23;;;;;;;9.93;1.90;;;8.40;97.20;;;;;;5032740;28;20132;-79
2021/12/13 00:58:11;;;;;;;12.27;2.03;;;8.30;97.20;;;;;;5050283;28;20033;-76
2021/12/13 01:00:45;;;;;;;8.05;2.15;;;8.30;97.20;;;;;;5050306;28;20021;-78
2021/12/13 01:03:24;;;;;;;7.43;2.17;;;8.30;97.30;;;;;;5050787;28;20071;-76
2021/12/13 01:06:14;;;;;;;7.80;2.38;;;8.30;97.40;;;;;;5050234;28;20467;-76
2021/12/13 01:09:41;;;;;;;6.50;2.08;;;8.20;97.30;;;;;;5048951;28;20450;-75
2021/12/13 01:12:14;;;;;;;6.15;1.90;;;8.20;97.40;;;;;;5049903;28;20025;-81
2021/12/13 01:14:59;;;;;;;6.78;1.90;;;8.20;97.40;;;;;;5050042;28;20021;-80
2021/12/13 01:20:43;;;;;;;6.13;1.73;;;8.10;97.60;;;;;;5050053;28;20387;-78
2021/12/13 01:23:16;;;;;;;2.92;1.42;;;8.10;97.60;;;;;;5050013;28;20017;-76
2021/12/13 01:26:00;;;;;;;5.00;2.08;;;8.10;97.70;;;;;;5048412;28;20389;-78
2021/12/13 01:28:31;;;;;;;4.22;1.58;;;8.10;97.70;;;;;;5049902;28;20024;-76
2021/12/13 01:31:07;;;;;;;6.25;2.28;;;8.20;97.70;;;;;;5049799;28;20032;-76
2021/12/13 01:33:34;;;;;;;6.53;1.45;;;8.10;97.70;;;;;;5050024;28;20036;-76
2021/12/13 01:36:03;;;;;;;9.18;2.00;;;8.10;97.80;;;;;;5049678;28;20017;-75
2021/12/13 01:38:35;;;;;;;11.43;2.05;;;8.10;97.90;;;;;;5049443;28;20035;-77
2021/12/13 01:41:15;;;;;;;4.18;1.42;;;8.20;97.90;;;;;;5049456;28;20032;-75
2021/12/13 01:43:49;;;;;;;8.38;2.15;;;8.20;98.00;;;;;;5048184;28;20090;-77
2021/12/13 01:46:17;;;;;;;12.50;2.25;;;8.20;98.00;;;;;;5049504;28;20024;-74
2021/12/13 01:48:45;;;;;;;8.25;2.47;;;8.30;98.00;;;;;;5049377;28;20472;-78
2021/12/13 01:51:15;;;;;;;8.02;1.90;;;8.30;98.00;;;;;;5049429;28;20057;-79
2021/12/13 01:53:48;;;;;;;7.75;1.58;;;8.30;98.00;;;;;;5049573;28;20446;-75
2021/12/13 01:56:54;;;;;;;8.57;2.03;;;8.30;97.90;;;;;;5049358;28;20086;-79
2021/12/13 02:02:16;;;;;;;13.45;2.17;;;8.40;97.90;;;;;;5049354;28;20487;-77
2021/12/13 02:04:44;;;;;;;5.55;1.88;;;8.40;97.90;;;;;;5047198;28;20049;-76
2021/12/13 02:07:11;;;;;;;7.63;2.03;;;8.40;97.90;;;;;;5049140;28;20028;-80
2021/12/13 02:09:41;;;;;;;5.78;2.30;;;8.40;97.90;;;;;;5047772;28;20059;-76
2021/12/13 02:12:14;;;;;;;11.43;2.47;;;8.30;98.00;;;;;;5048975;28;20021;-78
2021/12/13 02:14:48;;;;;;;13.30;2.80;;;8.30;98.00;;;;;;5047639;28;20025;-77
2021/12/13 02:17:20;;;;;;;8.60;2.20;;;8.30;98.00;;;;;;5048912;28;20100;-78
2021/12/13 02:19:52;;;;;;;7.05;2.15;;;8.30;98.00;;;;;;5049008;28;20029;-77
2021/12/13 02:22:48;;;;;;;5.25;2.22;;;8.30;98.10;;;;;;5047376;28;20033;-77
2021/12/13 02:25:25;;;;;;;8.07;2.30;;;8.30;98.20;;;;;;5038461;28;20094;-76
2021/12/13 02:27:59;;;;;;;9.70;2.60;;;8.30;98.10;;;;;;5048836;28;20086;-78
2021/12/13 02:30:45;;;;;;;12.23;2.35;;;8.30;98.10;;;;;;5047423;28;20025;-76
2021/12/13 02:33:16;;;;;;;8.05;1.70;;;8.20;98.10;;;;;;5047260;28;20181;-79
2021/12/13 02:35:46;;;;;;;8.57;2.20;;;8.20;98.10;;;;;;5048470;28;20641;-79
2021/12/13 02:38:14;;;;;;;7.05;2.65;;;8.20;98.10;;;;;;5048596;28;20032;-76
2021/12/13 02:40:41;;;;;;;13.13;2.50;;;8.10;98.20;;;;;;5048322;28;20025;-77
2021/12/13 02:43:10;;;;;;;7.40;2.65;;;8.10;98.30;;;;;;5047114;28;20302;-76
2021/12/13 02:45:43;;;;;;;7.50;2.42;;;8.20;98.30;;;;;;5048257;28;20159;-78
2021/12/13 02:48:21;;;;;;;9.65;2.33;;;8.20;98.40;;;;;;5048334;28;20025;-78
2021/12/13 02:51:02;;;;;;;9.25;2.17;;;8.20;98.40;;;;;;5048309;28;20147;-77
2021/12/13 02:53:35;;;;;;;7.22;2.35;;;8.20;98.40;;;;;;5047030;28;20048;-76
2021/12/13 02:56:01;;;;;;;7.57;2.30;;;8.20;98.40;;;;;;5046887;28;20230;-76
2021/12/13 02:58:29;;;;;;;8.45;2.30;;;8.20;98.30;;;;;;5047068;28;20033;-74
2021/12/13 03:01:15;;;;;;;12.43;2.53;;;8.20;98.30;;;;;;5030248;28;20033;-77
2021/12/13 03:03:52;;;;;;;10.13;2.45;;;8.20;98.30;;;;;;5046835;28;20032;-77
2021/12/13 03:06:20;;;;;;;;;;;8.10;98.30;;;;;;5046985;28;20359;-77
2021/12/13 03:08:59;;;;;;;9.43;2.63;;;8.10;98.30;;;;;;5048043;28;20339;-77
2021/12/13 03:11:30;;;;;;;5.80;2.85;;;8.00;98.30;;;;;;5048141;28;20119;-78
2021/12/13 03:14:01;;;;;;;19.75;2.42;;;8.00;98.30;;;;;;5046435;28;20131;-74
2021/12/13 03:16:32;;;;;;;11.48;2.33;;;8.00;98.40;;;;;;5047741;28;20025;-76
2021/12/13 03:19:21;;;;;;;8.27;2.33;;;8.00;98.50;;;;;;5048020;28;20036;-79
2021/12/13 03:22:03;;;;;;;10.15;2.35;;;8.00;98.60;;;;;;5047896;28;20025;-77
2021/12/13 03:24:34;;;;;;;8.25;2.35;;;8.00;98.70;;;;;;5047668;28;20049;-78
2021/12/13 03:27:08;;;;;;;6.30;2.05;;;8.00;98.70;;;;;;5047700;28;20045;-76
2021/12/13 03:30:01;;;;;;;8.88;1.92;;;8.00;98.70;;;;;;5047788;28;20025;-78
2021/12/13 03:32:45;;;;;;;9.80;2.47;;;8.00;98.70;;;;;;5047757;28;20112;-77
2021/12/13 03:35:53;;;;;;;5.60;2.40;;;8.10;98.70;;;;;;5047523;28;20075;-78
2021/12/13 03:38:39;;;;;;;5.72;1.83;;;8.10;98.70;;;;;;5047607;28;20039;-76
2021/12/13 03:41:10;;;;;;;5.87;2.10;;;8.10;98.60;;;;;;5047538;28;20029;-77
2021/12/13 03:43:45;;;;;;;8.57;1.92;;;8.10;98.60;;;;;;5047610;28;20952;-75
2021/12/13 03:46:15;;;;;;;13.45;2.22;;;8.10;98.70;;;;;;5046392;28;20512;-75
2021/12/13 03:48:43;;;;;;;10.85;2.00;;;8.00;98.70;;;;;;5047427;28;20055;-72
2021/12/13 03:51:16;;;;;;;3.90;2.42;;;8.10;98.70;;;;;;5047586;28;20021;-74
2021/12/13 03:53:46;;;;;;;10.90;3.58;;;8.10;98.70;;;;;;5047570;28;20118;-78
2021/12/13 03:56:16;;;;;;;7.63;2.53;;;8.10;98.70;;;;;;5046289;28;20064;-77
2021/12/13 03:58:48;;;;;;;9.45;2.50;;;8.10;98.70;;;;;;5046154;28;20059;-77
2021/12/13 04:01:20;;;;;;;9.05;3.25;;;8.00;98.70;;;;;;5047296;28;20032;-78
2021/12/13 04:03:47;;;;;;;10.52;2.50;;;8.00;98.70;;;;;;5046191;28;20119;-76
2021/12/13 04:06:16;;;;;;;8.80;2.30;;;8.00;98.80;;;;;;5046001;28;20067;-76
2021/12/13 04:08:45;;;;;;;10.65;2.42;;;8.00;98.80;;;;;;5047414;28;20039;-77
2021/12/13 04:11:12;;;;;;;18.65;2.60;;;8.00;98.80;;;;;;5047473;28;20483;-76
2021/12/13 04:13:46;;;;;;;8.73;2.20;;;8.00;98.80;;;;;;5047531;28;20098;-78
2021/12/13 04:16:48;;;;;;;8.98;2.45;;;8.00;98.80;;;;;;5047153;28;20036;-77
2021/12/13 04:19:22;;;;;;;6.35;2.25;;;8.00;98.90;;;;;;5047279;28;20024;-77
2021/12/13 04:21:58;;;;;;;6.28;1.83;;;7.90;98.90;;;;;;5047467;28;20021;-73
2021/12/13 04:24:32;;;;;;;10.13;2.22;;;8.00;98.90;;;;;;5045805;28;20068;-77
2021/12/13 04:27:04;;;;;;;7.47;2.00;;;8.00;99.00;;;;;;5048971;28;20025;-77
2021/12/13 04:29:34;;;;;;;7.07;2.05;;;8.00;99.00;;;;;;5051112;28;20025;-74
2021/12/13 04:32:15;;;;;;;8.98;2.45;;;8.00;99.00;;;;;;5049563;28;20563;-77
2021/12/13 04:34:42;;;;;;;12.00;2.90;;;8.00;99.00;;;;;;5051059;28;20036;-77
2021/12/13 04:37:13;;;;;;;8.60;2.40;;;8.00;99.00;;;;;;5049567;28;20079;-76
2021/12/13 04:39:42;;;;;;;10.65;2.42;;;8.00;99.00;;;;;;5050879;28;20032;-76
2021/12/13 04:42:12;;;;;;;8.90;2.60;;;8.00;99.00;;;;;;5050616;28;20037;-75
2021/12/13 04:44:51;;;;;;;9.85;2.83;;;8.00;99.00;;;;;;5050603;28;20021;-75
2021/12/13 04:47:23;;;;;;;6.30;2.50;;;8.00;99.00;;;;;;5050639;28;20033;-78
2021/12/13 04:49:59;;;;;;;4.15;2.13;;;8.00;99.00;;;;;;5050706;28;20052;-76
2021/12/13 04:52:25;;;;;;;7.30;2.42;;;8.00;99.00;;;;;;5050614;28;20036;-76
2021/12/13 04:54:54;;;;;;;12.77;3.33;;;8.00;99.00;;;;;;5050372;28;20419;-76
2021/12/13 04:57:22;;;;;;;9.25;3.10;;;8.10;99.00;;;;;;5050431;28;20122;-77
2021/12/13 04:59:54;;;;;;;16.65;3.13;;;8.10;99.00;;;;;;5049023;28;20033;-77
2021/12/13 05:02:22;;;;;;;9.45;3.15;;;8.10;99.00;;;;;;5048998;28;20079;-76
2021/12/13 05:04:54;;;;;;;8.98;2.20;;;8.00;99.00;;;;;;5050103;28;20108;-76
2021/12/13 05:07:20;;;;;;;6.65;2.30;;;8.10;99.00;;;;;;5050874;28;20498;-78
2021/12/13 05:09:47;;;;;;;;;;;8.10;99.00;;;;;;5049521;28;20060;-77
2021/12/13 05:12:16;;;;;;;5.95;1.88;;;8.10;99.00;;;;;;5050232;28;19920;-75
2021/12/13 05:14:55;;;;;;;8.38;2.10;;;8.10;99.00;;;;;;5050066;28;20079;-75
2021/12/13 05:17:39;;;;;;;4.03;2.45;;;8.10;99.00;;;;;;5048746;28;20029;-75
2021/12/13 05:20:21;;;;;;;8.90;2.33;;;8.10;99.00;;;;;;5048661;28;20124;-76
2021/12/13 05:22:58;;;;;;;8.27;2.78;;;8.10;99.00;;;;;;5048788;28;20383;-77
2021/12/13 05:25:43;;;;;;;6.80;2.30;;;8.10;99.00;;;;;;5048358;28;20094;-77
2021/12/13 05:28:25;;;;;;;6.70;2.20;;;8.10;99.00;;;;;;5049743;28;20022;-77
2021/12/13 05:31:02;;;;;;;9.48;2.65;;;8.10;99.00;;;;;;5049881;28;20017;-77
2021/12/13 05:33:31;;;;;;;7.80;1.90;;;8.20;99.20;;;;;;5048590;28;20028;-77
2021/12/13 05:36:00;;;;;;;6.20;2.42;;;8.10;99.00;;;;;;5048430;28;20029;-78
2021/12/13 05:38:34;;;;;;;14.68;3.33;;;8.20;99.00;;;;;;5048263;28;20037;-75
2021/12/13 05:41:03;;;;;;;5.05;2.00;;;8.10;99.00;;;;;;5049534;28;20033;-77
2021/12/13 05:43:45;;;;;;;4.32;1.92;;;8.10;99.00;;;;;;5049537;28;20029;-79
2021/12/13 05:46:15;;;;;;;5.15;2.28;;;8.10;99.00;;;;;;5048127;28;20463;-77
2021/12/13 05:48:49;;;;;;;5.47;2.20;;;8.10;99.00;;;;;;5048442;28;20052;-81
2021/12/13 05:51:32;;;;;;;12.30;2.72;;;8.10;99.10;;;;;;5048286;28;20063;-80
2021/12/13 05:54:09;;;;;;;8.25;2.53;;;8.10;99.10;;;;;;5048078;28;20392;-78
2021/12/13 05:57:00;;;;;;;9.82;2.50;;;8.10;99.10;;;;;;5049377;28;20032;-75
2021/12/13 05:59:28;;;;;;;8.63;2.78;;;8.20;99.10;;;;;;5046056;28;20036;-76
2021/12/13 06:02:12;;;;;;;7.22;2.83;;;8.20;99.10;;;;;;5049330;28;20029;-78
2021/12/13 06:04:40;;;;;;;11.38;2.95;;;8.20;99.10;;;;;;5049199;28;20025;-75
2021/12/13 06:07:23;;;;;;;14.45;2.55;;;8.20;99.10;;;;;;5049146;28;20025;-76
2021/12/13 06:09:52;;;;;;;7.78;2.65;;;8.20;99.20;;;;;;5049445;28;20025;-77
2021/12/13 06:12:55;;;;;;;6.35;1.90;;;8.20;99.10;;;;;;5048973;28;20029;-79
2021/12/13 06:15:31;;;;;;;6.93;2.47;;;8.30;99.20;;;;;;5048000;28;20045;-76
2021/12/13 06:18:12;;;;;;;9.35;2.40;;;8.30;99.10;;;;;;5048833;28;20052;-78
2021/12/13 06:20:58;;;;;;;5.28;2.30;;;8.30;99.10;;;;;;5047247;28;20029;-76
2021/12/13 06:23:28;;;;;;;7.85;2.72;;;8.30;99.10;;;;;;5048774;28;20051;-76
2021/12/13 06:26:00;;;;;;;5.47;3.13;;;8.40;99.10;;;;;;5047186;28;20095;-77
2021/12/13 06:28:36;;;;;;;10.05;2.63;;;8.40;99.10;;;;;;5049182;28;20103;-77
2021/12/13 06:31:39;;;;;;;13.80;2.83;;;8.40;99.10;;;;;;5048770;28;20017;-75
2021/12/13 06:34:10;;;;;;;5.95;2.22;;;8.40;99.20;;;;;;5034702;28;20395;-78
2021/12/13 06:36:45;;;;;;;5.28;2.00;;;8.40;99.10;;;;;;5047182;28;20057;-77
2021/12/13 06:39:14;;;;;;;6.75;2.20;;;8.40;99.10;;;;;;5048572;28;20037;-76
2021/12/13 06:41:47;;;;;;;10.90;2.50;;;8.50;99.20;;;;;;5048386;28;20024;-80
2021/12/13 06:44:25;;;;;;;8.80;2.88;;;8.50;99.20;;;;;;5048411;28;20411;-79
2021/12/13 06:46:53;;;;;;;11.73;2.55;;;8.50;99.20;;;;;;5048212;28;20100;-79
2021/12/13 06:49:25;;;;;;;5.90;2.30;;;8.50;99.10;;;;;;5047716;28;20052;-77
2021/12/13 06:51:53;;;;;;;6.40;3.03;;;8.60;99.20;;;;;;5046985;28;20468;-78
2021/12/13 06:54:27;;;;;;;8.30;2.63;;;8.60;99.20;;;;;;5048098;28;20112;-76
2021/12/13 06:57:07;;;;;;;6.18;2.65;;;8.60;99.20;;;;;;5048089;28;20021;-79
2021/12/13 06:59:44;;;;;;;7.35;2.67;;;8.60;99.20;;;;;;5047993;28;20044;-79
2021/12/13 07:02:14;;;;;;;9.65;2.85;;;8.60;99.10;;;;;;5047908;28;20025;-78
2021/12/13 07:04:59;;;;;;;8.95;2.90;;;8.60;99.20;;;;;;5048240;28;20410;-76
2021/12/13 07:07:34;;;;;;;11.95;3.10;;;8.60;99.20;;;;;;5047989;28;20051;-77
2021/12/13 07:10:06;;;;;;;9.30;3.33;;;8.60;99.20;;;;;;5047913;28;20371;-76
2021/12/13 07:12:32;;;;;;;12.70;3.40;;;8.60;99.30;;;;;;5047464;28;20434;-74
2021/12/13 07:14:59;;;;;;;;;;;8.60;99.30;;;;;;5048026;28;20096;-77
2021/12/13 07:17:34;;;;;;;12.25;3.38;;;8.70;99.30;;;;;;5045783;28;19974;-76
2021/12/13 07:20:12;;;;;;;14.18;4.15;;;8.70;99.40;;;;;;5045985;28;20043;-76
2021/12/13 07:22:38;;;;;;;10.90;3.20;;;8.70;99.40;;;;;;5047509;28;20104;-80
2021/12/13 07:25:14;;;;;;;7.45;2.70;;;8.70;99.20;;;;;;5046026;28;20140;-78
2021/12/13 07:27:50;;;;;;;5.33;2.40;;;8.70;99.20;;;;;;5047476;28;20032;-76
2021/12/13 07:30:22;;;;;;;13.07;3.30;;;8.70;99.10;;;;;;5047403;28;20383;-76
2021/12/13 07:32:53;;;;;;;11.98;3.13;;;8.70;99.10;;;;;;5047459;28;20025;-77
2021/12/13 07:35:23;;;;;;;10.50;2.38;;;8.70;99.10;;;;;;5047080;28;20033;-76
2021/12/13 07:37:55;;;;;;;12.18;3.05;;;8.70;99.20;;;;;;5047150;28;20029;-77
2021/12/13 07:40:44;;;;;;;11.52;2.80;;;8.70;99.20;;;;;;5047273;28;20055;-75
2021/12/13 07:43:23;;;;;;;11.07;3.50;;;8.70;99.20;;;;;;5045776;28;20025;-79
2021/12/13 07:46:05;;;;;;;8.20;3.10;;;8.70;99.10;;;;;;5047166;28;20025;-78
2021/12/13 07:48:43;;;;;;;8.30;3.35;;;8.70;99.20;;;;;;5047787;28;20048;-76
2021/12/13 07:51:18;;;;;;;12.02;3.08;;;8.70;99.20;;;;;;5047178;28;20040;-78
2021/12/13 07:53:51;;;;;;;8.23;2.58;;;8.70;99.20;;;;;;5045744;28;20064;-78
2021/12/13 07:56:28;;;;;;;11.00;3.40;;;8.70;99.20;;;;;;5047209;28;20112;-77
2021/12/13 07:59:25;;;;;;;7.22;3.20;;;8.70;99.10;;;;;;5046856;28;20029;-75
2021/12/13 08:02:02;;;;;;;6.00;2.90;;;8.60;99.20;;;;;;5046825;28;20055;-78
2021/12/13 08:04:51;;;;;;;14.27;3.08;;;8.60;99.20;;;;;;5051057;28;20021;-77
2021/12/13 08:07:39;;;;;;;10.40;3.53;;;8.60;99.20;;;;;;5051324;28;20052;-78
2021/12/13 08:10:13;;;;;;;12.80;3.17;;;8.60;99.20;;;;;;5051097;28;20024;-76
2021/12/13 08:12:44;;;;;;;12.50;3.55;;;8.60;99.20;;;;;;5050928;28;20379;-77
2021/12/13 08:15:15;;;;;;;12.10;3.28;;;8.60;99.20;;;;;;5050837;28;20055;-76
2021/12/13 08:17:53;;;;;;;10.75;2.88;;;8.50;99.20;;;;;;5049508;28;20060;-77
2021/12/13 08:20:40;;;;;;;11.27;3.53;;;8.50;99.20;;;;;;5050991;28;20025;-74
2021/12/13 08:23:18;;;;;;;10.02;2.80;;;8.50;99.30;;;;;;5050686;28;20081;-76
2021/12/13 08:25:47;;;;;;;5.18;3.28;;;8.50;99.30;;;;;;5048923;28;20049;-76
2021/12/13 08:28:17;;;;;;;10.45;2.72;;;8.40;99.30;;;;;;5050433;28;20166;-77
2021/12/13 08:30:53;;;;;;;14.35;3.40;;;8.40;99.40;;;;;;5049241;28;20024;-77
2021/12/13 08:33:30;;;;;;;14.48;3.13;;;8.40;99.50;;;;;;5049305;28;20317;-79
2021/12/13 08:36:02;;;;;;;;;;;8.40;99.50;;;;;;5050968;28;20266;-77
2021/12/13 08:38:30;;;;;;;8.13;2.83;;;8.40;99.60;;;;;;5049234;28;19909;-76
2021/12/13 08:41:04;;;;;;;5.75;2.38;;;8.40;99.50;;;;;;5050166;28;20082;-71
2021/12/13 08:43:41;;;;;;;8.32;2.58;;;8.40;99.50;;;;;;5048538;28;20168;-77
2021/12/13 08:46:08;;;;;;;8.00;2.40;;;8.50;99.50;;;;;;5050011;28;20514;-76
2021/12/13 08:48:48;;;;;;;9.95;2.50;;;8.50;99.50;;;;;;5048792;28;20029;-79
2021/12/13 08:51:24;;;;;;;12.63;2.75;;;8.60;99.50;;;;;;5050391;28;20025;-78
2021/12/13 08:54:09;;;;;;;6.30;2.40;;;8.60;99.40;;;;;;5049765;28;20024;-76
2021/12/13 08:56:45;;;;;;;11.52;2.95;;;8.60;99.40;;;;;;5049003;28;20029;-79
2021/12/13 08:59:26;;;;;;;15.38;2.97;;;8.70;99.40;;;;;;5050310;28;20113;-78
2021/12/13 09:02:01;;;;;;;11.57;2.58;;;8.70;99.40;;;;;;5051059;28;20024;-76
2021/12/13 09:04:35;;;;;;;11.45;3.28;;;8.70;99.40;;;;;;5050312;28;20092;-78
2021/12/13 09:07:05;;;;;;;11.73;3.95;;;8.80;99.40;;;;;;5050631;28;20025;-77
2021/12/13 09:09:32;;;;;;;10.23;2.92;;;8.70;99.40;;;;;;5051315;28;20021;-76
2021/12/13 09:12:32;;;;;;;11.75;3.65;;;8.80;99.40;;;;;;5031860;28;20495;-77
2021/12/13 09:15:02;;;;;;;8.10;2.90;;;8.80;99.40;;;;;;5046827;28;20029;-76
2021/12/13 09:17:31;;;;;;;8.48;3.22;;;8.80;99.30;;;;;;5049032;28;20028;-75
2021/12/13 09:20:16;;;;;;;13.63;3.60;;;8.80;99.20;;;;;;5049336;28;20021;-75
2021/12/13 09:23:07;;;;;;;16.63;3.80;;;8.80;99.20;;;;;;5049051;28;20024;-76
2021/12/13 09:25:40;;;;;;;7.80;2.72;;;8.70;99.20;;;;;;5047482;28;20573;-76
2021/12/13 09:28:27;;;;;;;11.57;3.03;;;8.70;99.20;;;;;;5049458;28;20036;-75
2021/12/13 09:31:01;;;;;;;13.15;3.40;;;8.80;99.20;;;;;;5048184;28;20415;-75
2021/12/13 09:33:41;;;;;;;9.15;2.83;;;8.80;99.20;;;;;;5049291;28;20480;-75
2021/12/13 09:36:13;;;;;;;12.75;3.40;;;8.80;99.20;;;;;;5044902;28;20395;-76
2021/12/13 09:38:52;;;;;;;13.15;3.17;;;8.80;99.20;;;;;;5047559;28;20079;-75
2021/12/13 09:41:21;;;;;;;6.18;2.90;;;8.80;99.20;;;;;;5049099;28;20033;-76
2021/12/13 09:44:02;;;;;;;13.27;2.65;;;8.90;99.30;;;;;;5050601;28;20049;-76
2021/12/13 09:46:58;;;;;;;10.95;3.38;;;8.90;99.30;;;;;;5050886;28;20387;-77
2021/12/13 09:49:49;;;;;;;12.77;3.55;;;8.90;99.30;;;;;;5049382;28;20017;-77
2021/12/13 09:52:17;;;;;;;10.55;3.28;;;8.90;99.30;;;;;;5050570;28;20585;-77
2021/12/13 09:54:53;;;;;;;6.65;3.13;;;9.00;99.30;;;;;;5051188;28;20378;-79
2021/12/13 09:57:32;;;;;;;8.95;2.80;;;9.00;99.30;;;;;;5049735;28;20060;-79
2021/12/13 09:59:59;;;;;;;11.48;3.20;;;9.00;99.30;;;;;;5050003;28;20040;-77
2021/12/13 10:02:39;;;;;;;9.00;2.90;;;9.10;99.30;;;;;;5048528;28;20025;-78
2021/12/13 10:05:12;;;;;;;7.28;3.05;;;9.10;99.30;;;;;;5047754;28;20514;-79
2021/12/13 10:07:42;;;;;;;12.10;3.33;;;9.10;99.30;;;;;;5048926;28;20029;-79
2021/12/13 10:10:41;;;;;;;14.27;3.55;;;9.10;99.30;;;;;;5047522;28;20031;-77
2021/12/13 10:13:12;;;;;;;9.82;2.92;;;9.10;99.20;;;;;;5047465;28;20021;-80
2021/12/13 10:15:43;;;;;;;7.28;3.65;;;9.20;99.20;;;;;;5047287;28;20498;-77
2021/12/13 10:18:16;;;;;;;7.65;2.67;;;9.20;99.30;;;;;;5046777;28;20029;-78
2021/12/13 10:20:47;;;;;;;10.60;3.08;;;9.20;99.10;;;;;;5043417;28;20112;-78
2021/12/13 10:23:16;;;;;;;8.13;3.15;;;9.20;99.10;;;;;;5050161;28;20028;-77
2021/12/13 10:25:45;;;;;;;13.23;2.65;;;9.20;99.00;;;;;;5047829;28;20055;-76
2021/12/13 10:28:19;;;;;;;14.23;4.00;;;9.20;99.00;;;;;;5050018;28;20036;-77
2021/12/13 10:31:00;;;;;;;8.85;3.33;;;9.20;98.90;;;;;;5050187;28;20021;-77
2021/12/13 10:33:28;;;;;;;7.53;2.35;;;9.20;98.90;;;;;;5050084;28;20206;-78
2021/12/13 10:35:55;;;;;;;9.07;3.72;;;9.30;98.90;;;;;;5049782;28;20167;-76
2021/12/13 10:38:32;;;;;;;8.75;3.33;;;9.30;98.90;;;;;;5045565;28;20372;-77
2021/12/13 10:41:03;;;;;;;11.70;3.15;;;9.30;98.90;;;;;;5035551;28;20037;-77
2021/12/13 10:43:35;;;;;;;8.93;2.95;;;9.30;98.90;;;;;;5039551;28;20107;-76
2021/12/13 10:46:07;;;;;;;11.35;3.30;;;9.30;98.80;;;;;;5035724;28;20031;-76
2021/12/13 10:48:42;;;;;;;10.13;3.10;;;9.30;98.70;;;;;;5040512;28;20023;-77
2021/12/13 10:51:11;;;;;;;8.88;3.25;;;9.40;98.80;;;;;;5029520;28;20060;-75
2021/12/13 10:53:40;;;;;;;8.02;2.67;;;9.30;98.70;;;;;;5029267;28;20505;-74
2021/12/13 10:56:11;;;;;;;12.68;3.05;;;9.30;98.80;;;;;;5027797;28;20033;-79
2021/12/13 10:58:44;;;;;;;10.68;2.65;;;9.40;98.90;;;;;;5029588;28;20033;-79
2021/12/13 11:01:18;;;;;;;10.60;2.70;;;9.40;98.90;;;;;;5027544;28;20025;-76
2021/12/13 11:03:45;;;;;;;10.73;3.22;;;9.40;98.80;;;;;;5029575;28;20029;-76
2021/12/13 11:06:13;;;;;;;7.35;2.38;;;9.50;98.80;;;;;;5011651;28;20030;-76
2021/12/13 11:08:41;;;;;;;9.77;2.92;;;9.50;98.70;;;;;;5028404;28;20036;-74
2021/12/13 11:11:18;;;;;;;10.38;2.97;;;9.60;98.70;;;;;;5028401;28;20079;-77
2021/12/13 11:13:45;;;;;;;13.02;2.58;;;9.60;98.60;;;;;;5028174;28;20040;-74
2021/12/13 11:16:16;;;;;;;;;;;9.60;98.60;;;;;;5030371;28;20068;-78
2021/12/13 11:18:45;;;;;;;13.27;3.05;;;9.70;98.60;;;;;;5029297;28;20325;-77
2021/12/13 11:21:21;;;;;;;8.43;2.15;;;9.70;98.50;;;;;;5029066;28;20579;-75
2021/12/13 11:23:48;;;;;;;16.90;4.63;;;9.80;98.50;;;;;;5029283;28;20720;-74
2021/12/13 11:26:15;;;;;;;;;;;9.80;98.50;;;;;;5029651;28;20025;-78
2021/12/13 11:28:41;;;;;;;9.95;3.35;;;9.90;98.60;;;;;;5027503;28;19909;-77
2021/12/13 11:31:30;;;;;;;13.07;4.68;;;10.00;98.60;;;;;;5028578;28;20458;-75
2021/12/13 11:34:02;;;;;;;17.65;5.05;;;10.00;98.60;;;;;;5020317;28;20030;-78
2021/12/13 11:37:04;;;;;;;18.45;5.43;;;10.10;98.50;;;;;;5028590;28;20060;-75
2021/12/13 11:39:57;;;;;;;13.15;4.38;;;10.20;98.50;;;;;;5029120;28;20063;-75
2021/12/13 11:42:32;;;;;;;13.88;3.75;;;10.30;98.40;;;;;;5028570;28;20040;-75
2021/12/13 11:45:12;;;;;;;14.48;4.75;;;10.30;98.30;;;;;;5028018;28;20036;-78
2021/12/13 11:48:16;;;;;;;12.32;3.88;;;10.30;98.20;;;;;;5027979;28;20033;-79
2021/12/13 11:51:04;;;;;;;13.13;4.47;;;10.40;98.30;;;;;;5028448;28;20026;-76
2021/12/13 11:53:48;;;;;;;;;;;10.50;98.30;;;;;;5034370;28;20112;-78
2021/12/13 11:56:25;;;;;;;18.00;5.03;;;10.60;98.40;;;;;;5046689;28;19905;-76
2021/12/13 11:59:33;;;;;;;7.68;2.78;;;10.60;98.30;;;;;;5047344;28;20048;-77
2021/12/13 12:02:17;;;;;;;10.30;3.05;;;10.60;98.20;;;;;;5037522;28;20495;-74
2021/12/13 12:05:06;;;;;;;13.35;5.20;;;10.70;98.10;;;;;;5032977;28;20029;-75
2021/12/13 12:08:09;;;;;;;12.93;3.80;;;10.70;98.00;;;;;;5037024;28;20112;-77
2021/12/13 12:11:02;;;;;;;12.68;3.42;;;10.70;97.90;;;;;;5032189;28;20037;-75
2021/12/13 12:14:01;;;;;;;13.45;4.38;;;10.70;97.80;;;;;;5032854;28;20100;-76
2021/12/13 12:16:28;;;;;;;12.65;4.35;;;10.70;97.70;;;;;;5041511;28;20024;-75
2021/12/13 12:18:56;;;;;;;9.25;3.17;;;10.70;97.70;;;;;;5040502;28;20022;-74
2021/12/13 12:21:43;;;;;;;10.55;2.88;;;10.70;97.60;;;;;;5010704;28;20492;-76
2021/12/13 12:24:14;;;;;;;9.15;3.63;;;10.70;97.50;;;;;;5026676;28;20369;-76
2021/12/13 12:26:45;;;;;;;13.63;3.22;;;10.70;97.50;;;;;;5028131;28;20519;-79
2021/12/13 12:29:18;;;;;;;14.27;4.05;;;10.60;97.40;;;;;;5026645;28;20381;-75
2021/12/13 12:31:50;;;;;;;13.63;4.40;;;10.70;97.50;;;;;;5026265;28;20029;-77
2021/12/13 12:34:16;;;;;;;9.57;4.22;;;10.70;97.50;;;;;;5028258;28;20053;-78
2021/12/13 12:36:47;;;;;;;16.60;5.63;;;10.70;97.40;;;;;;5028261;28;20054;-78
2021/12/13 12:39:37;;;;;;;17.63;5.88;;;10.60;97.40;;;;;;5028385;28;20356;-78
2021/12/13 12:42:37;;;;;;;12.00;4.53;;;10.60;97.50;;;;;;5028452;28;20025;-77
2021/12/13 12:45:23;;;;;;;16.05;3.22;;;10.70;97.40;;;;;;5029243;28;20595;-76
2021/12/13 12:47:49;;;;;;;8.70;3.38;;;10.70;97.40;;;;;;5030189;28;20460;-79
2021/12/13 12:50:24;;;;;;;8.65;2.63;;;10.60;97.40;;;;;;5030815;28;20101;-79
2021/12/13 12:52:56;;;;;;;22.48;3.88;;;10.60;97.40;;;;;;5030978;28;20630;-76
2021/12/13 12:55:35;;;;;;;13.05;3.97;;;10.60;97.40;;;;;;5031945;28;20441;-77
2021/12/13 12:58:14;;;;;;;16.00;4.25;;;10.60;97.40;;;;;;5032087;28;20447;-79
2021/12/13 13:00:41;;;;;;;14.73;4.53;;;10.60;97.40;;;;;;5032068;28;20460;-77
2021/12/13 13:03:12;;;;;;;13.48;4.45;;;10.60;97.40;;;;;;5031800;28;20034;-75
2021/12/13 13:05:39;;;;;;;9.77;3.72;;;10.60;97.40;;;;;;5031392;28;20115;-76
2021/12/13 13:08:07;;;;;;;15.57;4.32;;;10.60;97.40;;;;;;5031080;28;20021;-78
2021/12/13 13:13:06;;;;;;;12.48;3.28;;;10.50;97.40;;;;;;5031575;28;20036;-74
2021/12/13 13:15:44;;;;;;;17.40;4.20;;;10.50;97.40;;;;;;5031893;28;20044;-76
2021/12/13 13:18:22;;;;;;;13.60;3.50;;;10.40;97.50;;;;;;5029771;28;20026;-75
2021/12/13 13:20:55;;;;;;;13.02;4.15;;;10.40;97.50;;;;;;5035321;28;20037;-76
2021/12/13 13:23:25;;;;;;;17.23;6.25;;;10.30;97.50;;;;;;5049588;28;20706;-77
2021/12/13 13:25:58;;;;;;;12.07;4.50;;;10.30;97.60;;;;;;5050785;28;20430;-77
2021/12/13 13:28:28;;;;;;;11.82;4.75;;;10.30;97.60;;;;;;5050822;28;20017;-74
2021/12/13 13:31:09;;;;;;;22.70;6.18;;;10.30;97.50;;;;;;5050617;28;20627;-77
2021/12/13 13:33:43;;;;;;;21.63;7.60;;;10.30;97.60;;;;;;5050786;28;20411;-76
2021/12/13 13:36:14;;;;;;;17.60;6.97;;;10.20;97.50;;;;;;5050799;28;20381;-74
2021/12/13 13:38:40;;;;;;;11.27;4.35;;;10.20;97.60;;;;;;5050841;28;20129;-74
2021/12/13 13:41:09;;;;;;;12.02;4.80;;;10.10;97.60;;;;;;5050503;28;20435;-77
2021/12/13 13:43:39;;;;;;;13.57;5.22;;;10.20;97.70;;;;;;5050800;28;20033;-76
2021/12/13 13:46:06;;;;;;;13.88;4.55;;;10.10;97.70;;;;;;5051314;28;20094;-75
2021/12/13 13:48:35;;;;;;;17.85;5.63;;;10.10;97.70;;;;;;5049717;28;20045;-76